sensor_id;sensor_type;location;lat;lon;timestamp;temperature;humidity
11700;DHT22;5906;51.660;6.674;2022-08-21T00:00:25;15.50;99.90
11700;DHT22;5906;51.660;6.674;2022-08-21T00:02:56;15.50;99.90
11700;DHT22;5906;51.660;6.674;2022-08-21T00:05:25;15.50;99.90
11700;DHT22;5906;51.660;6.674;2022-08-21T00:07:52;15.40;99.90
11700;DHT22;5906;51.660;6.674;2022-08-21T00:10:20;15.40;99.90
11700;DHT22;5906;51.660;6.674;2022-08-21T00:12:47;15.30;99.90
11700;DHT22;5906;51.660;6.674;2022-08-21T00:15:17;15.10;99.90
11700;DHT22;5906;51.660;6.674;2022-08-21T00:17:45;15.00;99.90
11700;DHT22;5906;51.660;6.674;2022-08-21T00:20:14;15.00;99.90
11700;DHT22;5906;51.660;6.674;2022-08-21T00:22:42;15.00;99.90
11700;DHT22;5906;51.660;6.674;2022-08-21T00:25:10;15.00;99.90
11700;DHT22;5906;51.660;6.674;2022-08-21T00:27:37;15.00;99.90
11700;DHT22;5906;51.660;6.674;2022-08-21T00:30:05;14.90;99.90
11700;DHT22;5906;51.660;6.674;2022-08-21T00:32:34;15.00;99.90
11700;DHT22;5906;51.660;6.674;2022-08-21T00:35:03;14.90;99.90
11700;DHT22;5906;51.660;6.674;2022-08-21T00:37:30;14.90;99.90
11700;DHT22;5906;51.660;6.674;2022-08-21T00:40:00;14.90;99.90
11700;DHT22;5906;51.660;6.674;2022-08-21T00:42:28;14.90;99.90
11700;DHT22;5906;51.660;6.674;2022-08-21T00:44:56;14.80;99.90
11700;DHT22;5906;51.660;6.674;2022-08-21T00:47:24;14.80;99.90
11700;DHT22;5906;51.660;6.674;2022-08-21T00:49:51;14.80;99.90
11700;DHT22;5906;51.660;6.674;2022-08-21T00:52:22;14.70;99.90
11700;DHT22;5906;51.660;6.674;2022-08-21T00:54:51;14.70;99.90
11700;DHT22;5906;51.660;6.674;2022-08-21T00:57:26;14.70;99.90
11700;DHT22;5906;51.660;6.674;2022-08-21T00:59:56;14.70;99.90
11700;DHT22;5906;51.660;6.674;2022-08-21T01:02:24;14.60;99.90
11700;DHT22;5906;51.660;6.674;2022-08-21T01:04:52;14.60;99.90
11700;DHT22;5906;51.660;6.674;2022-08-21T01:07:19;14.60;99.90
11700;DHT22;5906;51.660;6.674;2022-08-21T01:09:48;14.50;99.90
11700;DHT22;5906;51.660;6.674;2022-08-21T01:12:15;14.50;99.90
11700;DHT22;5906;51.660;6.674;2022-08-21T01:14:42;14.50;99.90
11700;DHT22;5906;51.660;6.674;2022-08-21T01:17:11;14.50;99.90
11700;DHT22;5906;51.660;6.674;2022-08-21T01:19:40;14.50;99.90
11700;DHT22;5906;51.660;6.674;2022-08-21T01:22:07;14.40;99.90
11700;DHT22;5906;51.660;6.674;2022-08-21T01:24:34;14.30;99.90
11700;DHT22;5906;51.660;6.674;2022-08-21T01:27:01;14.30;99.90
11700;DHT22;5906;51.660;6.674;2022-08-21T01:32:14;14.30;99.90
11700;DHT22;5906;51.660;6.674;2022-08-21T01:34:44;14.20;99.90
11700;DHT22;5906;51.660;6.674;2022-08-21T01:37:12;14.20;99.90
11700;DHT22;5906;51.660;6.674;2022-08-21T01:39:39;14.20;99.90
11700;DHT22;5906;51.660;6.674;2022-08-21T01:42:08;14.10;99.90
11700;DHT22;5906;51.660;6.674;2022-08-21T01:44:36;14.10;99.90
11700;DHT22;5906;51.660;6.674;2022-08-21T01:47:07;14.00;99.90
11700;DHT22;5906;51.660;6.674;2022-08-21T01:49:35;14.00;99.90
11700;DHT22;5906;51.660;6.674;2022-08-21T01:52:03;14.00;99.90
11700;DHT22;5906;51.660;6.674;2022-08-21T01:54:35;13.90;99.90
11700;DHT22;5906;51.660;6.674;2022-08-21T01:57:03;13.90;99.90
11700;DHT22;5906;51.660;6.674;2022-08-21T01:59:30;13.90;99.90
11700;DHT22;5906;51.660;6.674;2022-08-21T02:01:57;13.80;99.90
11700;DHT22;5906;51.660;6.674;2022-08-21T02:04:24;13.80;99.90
11700;DHT22;5906;51.660;6.674;2022-08-21T02:06:51;13.80;99.90
11700;DHT22;5906;51.660;6.674;2022-08-21T02:09:18;13.80;99.90
11700;DHT22;5906;51.660;6.674;2022-08-21T02:11:46;13.70;99.90
11700;DHT22;5906;51.660;6.674;2022-08-21T02:14:14;13.70;99.90
11700;DHT22;5906;51.660;6.674;2022-08-21T02:16:58;13.70;99.90
11700;DHT22;5906;51.660;6.674;2022-08-21T02:19:36;13.70;99.90
11700;DHT22;5906;51.660;6.674;2022-08-21T02:22:08;13.70;99.90
11700;DHT22;5906;51.660;6.674;2022-08-21T02:24:36;13.60;99.90
11700;DHT22;5906;51.660;6.674;2022-08-21T02:27:21;13.60;99.90
11700;DHT22;5906;51.660;6.674;2022-08-21T02:29:54;13.60;99.90
11700;DHT22;5906;51.660;6.674;2022-08-21T02:32:21;13.60;99.90
11700;DHT22;5906;51.660;6.674;2022-08-21T02:34:48;13.70;99.90
11700;DHT22;5906;51.660;6.674;2022-08-21T02:37:15;13.70;99.90
11700;DHT22;5906;51.660;6.674;2022-08-21T02:39:42;13.70;99.90
11700;DHT22;5906;51.660;6.674;2022-08-21T02:42:09;13.70;99.90
11700;DHT22;5906;51.660;6.674;2022-08-21T02:44:35;13.70;99.90
11700;DHT22;5906;51.660;6.674;2022-08-21T02:47:02;13.70;99.90
11700;DHT22;5906;51.660;6.674;2022-08-21T02:49:29;13.80;99.90
11700;DHT22;5906;51.660;6.674;2022-08-21T02:51:55;13.80;99.90
11700;DHT22;5906;51.660;6.674;2022-08-21T02:54:22;13.80;99.90
11700;DHT22;5906;51.660;6.674;2022-08-21T02:56:48;13.80;99.90
11700;DHT22;5906;51.660;6.674;2022-08-21T02:59:15;13.80;99.90
11700;DHT22;5906;51.660;6.674;2022-08-21T03:01:42;13.90;99.90
11700;DHT22;5906;51.660;6.674;2022-08-21T03:04:09;13.90;99.90
11700;DHT22;5906;51.660;6.674;2022-08-21T03:06:36;14.00;99.90
11700;DHT22;5906;51.660;6.674;2022-08-21T03:09:03;14.00;99.90
11700;DHT22;5906;51.660;6.674;2022-08-21T03:11:29;14.00;99.90
11700;DHT22;5906;51.660;6.674;2022-08-21T03:13:56;14.00;99.90
11700;DHT22;5906;51.660;6.674;2022-08-21T03:16:23;14.10;99.90
11700;DHT22;5906;51.660;6.674;2022-08-21T03:18:50;14.10;99.90
11700;DHT22;5906;51.660;6.674;2022-08-21T03:21:16;14.10;99.90
11700;DHT22;5906;51.660;6.674;2022-08-21T03:23:45;14.10;99.90
11700;DHT22;5906;51.660;6.674;2022-08-21T03:26:12;14.20;99.90
11700;DHT22;5906;51.660;6.674;2022-08-21T03:28:39;14.20;99.90
11700;DHT22;5906;51.660;6.674;2022-08-21T03:31:06;14.20;99.90
11700;DHT22;5906;51.660;6.674;2022-08-21T03:33:32;14.20;99.90
11700;DHT22;5906;51.660;6.674;2022-08-21T03:36:03;14.20;99.90
11700;DHT22;5906;51.660;6.674;2022-08-21T03:38:32;14.10;99.90
11700;DHT22;5906;51.660;6.674;2022-08-21T03:40:59;14.10;99.90
11700;DHT22;5906;51.660;6.674;2022-08-21T03:43:27;14.10;99.90
11700;DHT22;5906;51.660;6.674;2022-08-21T03:46:00;14.10;99.90
11700;DHT22;5906;51.660;6.674;2022-08-21T03:48:26;14.10;99.90
11700;DHT22;5906;51.660;6.674;2022-08-21T03:50:53;14.10;99.90
11700;DHT22;5906;51.660;6.674;2022-08-21T03:53:20;14.00;99.90
11700;DHT22;5906;51.660;6.674;2022-08-21T03:55:49;14.00;99.90
11700;DHT22;5906;51.660;6.674;2022-08-21T03:58:19;13.90;99.90
11700;DHT22;5906;51.660;6.674;2022-08-21T04:00:49;14.00;99.90
11700;DHT22;5906;51.660;6.674;2022-08-21T04:03:17;13.90;99.90
11700;DHT22;5906;51.660;6.674;2022-08-21T04:05:44;13.90;99.90
11700;DHT22;5906;51.660;6.674;2022-08-21T04:08:13;13.90;99.90
11700;DHT22;5906;51.660;6.674;2022-08-21T04:10:45;13.90;99.90
11700;DHT22;5906;51.660;6.674;2022-08-21T04:13:13;13.90;99.90
11700;DHT22;5906;51.660;6.674;2022-08-21T04:15:41;13.90;99.90
11700;DHT22;5906;51.660;6.674;2022-08-21T04:18:08;14.00;99.90
11700;DHT22;5906;51.660;6.674;2022-08-21T04:20:35;14.00;99.90
11700;DHT22;5906;51.660;6.674;2022-08-21T04:23:02;14.00;99.90
11700;DHT22;5906;51.660;6.674;2022-08-21T04:25:29;14.10;99.90
11700;DHT22;5906;51.660;6.674;2022-08-21T04:27:56;14.10;99.90
11700;DHT22;5906;51.660;6.674;2022-08-21T04:30:24;14.10;99.90
11700;DHT22;5906;51.660;6.674;2022-08-21T04:32:55;14.10;99.90
11700;DHT22;5906;51.660;6.674;2022-08-21T04:35:25;14.20;99.90
11700;DHT22;5906;51.660;6.674;2022-08-21T04:37:53;14.20;99.90
11700;DHT22;5906;51.660;6.674;2022-08-21T04:40:20;14.30;99.90
11700;DHT22;5906;51.660;6.674;2022-08-21T04:42:53;14.30;99.90
11700;DHT22;5906;51.660;6.674;2022-08-21T04:45:41;14.30;99.90
11700;DHT22;5906;51.660;6.674;2022-08-21T04:48:10;14.30;99.90
11700;DHT22;5906;51.660;6.674;2022-08-21T04:53:35;14.50;99.90
11700;DHT22;5906;51.660;6.674;2022-08-21T04:56:08;14.50;99.90
11700;DHT22;5906;51.660;6.674;2022-08-21T04:58:38;14.50;99.90
11700;DHT22;5906;51.660;6.674;2022-08-21T05:01:07;14.70;99.90
11700;DHT22;5906;51.660;6.674;2022-08-21T05:03:36;14.70;99.90
11700;DHT22;5906;51.660;6.674;2022-08-21T05:06:07;14.80;99.90
11700;DHT22;5906;51.660;6.674;2022-08-21T05:08:35;14.90;99.90
11700;DHT22;5906;51.660;6.674;2022-08-21T05:11:03;14.90;99.90
11700;DHT22;5906;51.660;6.674;2022-08-21T05:13:30;14.80;99.90
11700;DHT22;5906;51.660;6.674;2022-08-21T05:15:57;14.80;99.90
11700;DHT22;5906;51.660;6.674;2022-08-21T05:18:25;14.80;99.90
11700;DHT22;5906;51.660;6.674;2022-08-21T05:20:52;14.80;99.90
11700;DHT22;5906;51.660;6.674;2022-08-21T05:23:19;14.80;99.90
11700;DHT22;5906;51.660;6.674;2022-08-21T05:25:46;14.70;99.90
11700;DHT22;5906;51.660;6.674;2022-08-21T05:28:14;14.70;99.90
11700;DHT22;5906;51.660;6.674;2022-08-21T05:30:41;14.70;99.90
11700;DHT22;5906;51.660;6.674;2022-08-21T05:33:07;14.80;99.90
11700;DHT22;5906;51.660;6.674;2022-08-21T05:35:34;14.80;99.90
11700;DHT22;5906;51.660;6.674;2022-08-21T05:38:01;14.90;99.90
11700;DHT22;5906;51.660;6.674;2022-08-21T05:40:28;14.90;99.90
11700;DHT22;5906;51.660;6.674;2022-08-21T05:42:55;15.00;99.90
11700;DHT22;5906;51.660;6.674;2022-08-21T05:45:25;15.00;99.90
11700;DHT22;5906;51.660;6.674;2022-08-21T05:48:15;15.10;99.90
11700;DHT22;5906;51.660;6.674;2022-08-21T05:50:43;15.20;99.90
11700;DHT22;5906;51.660;6.674;2022-08-21T05:53:12;15.30;99.90
11700;DHT22;5906;51.660;6.674;2022-08-21T05:55:40;15.40;99.90
11700;DHT22;5906;51.660;6.674;2022-08-21T05:58:17;15.50;99.90
11700;DHT22;5906;51.660;6.674;2022-08-21T06:00:45;15.60;99.90
11700;DHT22;5906;51.660;6.674;2022-08-21T06:03:32;15.70;99.90
11700;DHT22;5906;51.660;6.674;2022-08-21T06:05:58;15.80;99.90
11700;DHT22;5906;51.660;6.674;2022-08-21T06:08:27;15.90;99.90
11700;DHT22;5906;51.660;6.674;2022-08-21T06:10:55;16.00;99.90
11700;DHT22;5906;51.660;6.674;2022-08-21T06:13:23;16.20;99.90
11700;DHT22;5906;51.660;6.674;2022-08-21T06:16:10;16.30;99.90
11700;DHT22;5906;51.660;6.674;2022-08-21T06:18:42;16.40;99.90
11700;DHT22;5906;51.660;6.674;2022-08-21T06:21:10;16.60;99.90
11700;DHT22;5906;51.660;6.674;2022-08-21T06:23:37;16.70;99.90
11700;DHT22;5906;51.660;6.674;2022-08-21T06:26:05;16.80;99.90
11700;DHT22;5906;51.660;6.674;2022-08-21T06:28:34;17.00;99.90
11700;DHT22;5906;51.660;6.674;2022-08-21T06:31:01;17.20;99.90
11700;DHT22;5906;51.660;6.674;2022-08-21T06:33:27;17.30;99.90
11700;DHT22;5906;51.660;6.674;2022-08-21T06:35:58;17.50;99.90
11700;DHT22;5906;51.660;6.674;2022-08-21T06:38:25;17.70;99.90
11700;DHT22;5906;51.660;6.674;2022-08-21T06:40:52;17.90;99.90
11700;DHT22;5906;51.660;6.674;2022-08-21T06:43:18;18.10;99.90
11700;DHT22;5906;51.660;6.674;2022-08-21T06:45:45;18.30;1.00
11700;DHT22;5906;51.660;6.674;2022-08-21T06:48:12;18.30;99.90
11700;DHT22;5906;51.660;6.674;2022-08-21T06:50:44;18.50;99.90
11700;DHT22;5906;51.660;6.674;2022-08-21T06:53:13;18.80;1.00
11700;DHT22;5906;51.660;6.674;2022-08-21T06:55:40;19.00;1.00
11700;DHT22;5906;51.660;6.674;2022-08-21T06:58:09;19.20;1.00
11700;DHT22;5906;51.660;6.674;2022-08-21T07:00:42;19.40;99.90
11700;DHT22;5906;51.660;6.674;2022-08-21T07:03:27;19.70;1.00
11700;DHT22;5906;51.660;6.674;2022-08-21T07:05:54;19.70;82.20
11700;DHT22;5906;51.660;6.674;2022-08-21T07:08:23;19.90;1.00
11700;DHT22;5906;51.660;6.674;2022-08-21T07:10:51;20.10;1.00
11700;DHT22;5906;51.660;6.674;2022-08-21T07:13:18;20.10;99.90
11700;DHT22;5906;51.660;6.674;2022-08-21T07:15:45;20.30;1.00
11700;DHT22;5906;51.660;6.674;2022-08-21T07:18:12;20.30;99.90
11700;DHT22;5906;51.660;6.674;2022-08-21T07:20:40;20.30;1.00
11700;DHT22;5906;51.660;6.674;2022-08-21T07:23:15;20.20;1.00
11700;DHT22;5906;51.660;6.674;2022-08-21T07:25:46;20.30;99.90
11700;DHT22;5906;51.660;6.674;2022-08-21T07:28:13;20.40;99.90
11700;DHT22;5906;51.660;6.674;2022-08-21T07:30:39;20.60;37.30
11700;DHT22;5906;51.660;6.674;2022-08-21T07:33:06;20.60;99.90
11700;DHT22;5906;51.660;6.674;2022-08-21T07:35:34;20.70;99.90
11700;DHT22;5906;51.660;6.674;2022-08-21T07:38:00;20.90;1.00
11700;DHT22;5906;51.660;6.674;2022-08-21T07:40:27;21.00;7.10
11700;DHT22;5906;51.660;6.674;2022-08-21T07:42:54;21.20;99.90
11700;DHT22;5906;51.660;6.674;2022-08-21T07:45:22;21.20;99.90
11700;DHT22;5906;51.660;6.674;2022-08-21T07:47:50;21.30;99.90
11700;DHT22;5906;51.660;6.674;2022-08-21T07:50:23;21.40;99.90
11700;DHT22;5906;51.660;6.674;2022-08-21T07:52:50;21.40;99.90
11700;DHT22;5906;51.660;6.674;2022-08-21T07:55:19;21.40;99.90
11700;DHT22;5906;51.660;6.674;2022-08-21T07:57:47;21.60;99.90
11700;DHT22;5906;51.660;6.674;2022-08-21T08:00:18;21.90;99.90
11700;DHT22;5906;51.660;6.674;2022-08-21T08:02:48;22.10;99.90
11700;DHT22;5906;51.660;6.674;2022-08-21T08:05:21;22.30;99.90
11700;DHT22;5906;51.660;6.674;2022-08-21T08:07:48;22.40;99.90
11700;DHT22;5906;51.660;6.674;2022-08-21T08:10:16;22.30;99.90
11700;DHT22;5906;51.660;6.674;2022-08-21T08:12:44;22.50;99.90
11700;DHT22;5906;51.660;6.674;2022-08-21T08:15:19;22.50;99.90
11700;DHT22;5906;51.660;6.674;2022-08-21T08:17:46;22.60;99.90
11700;DHT22;5906;51.660;6.674;2022-08-21T08:20:15;22.70;99.90
11700;DHT22;5906;51.660;6.674;2022-08-21T08:22:43;22.80;99.90
11700;DHT22;5906;51.660;6.674;2022-08-21T08:25:16;22.80;99.90
11700;DHT22;5906;51.660;6.674;2022-08-21T08:27:44;22.60;99.90
11700;DHT22;5906;51.660;6.674;2022-08-21T08:30:13;22.60;99.90
11700;DHT22;5906;51.660;6.674;2022-08-21T08:32:41;22.80;99.90
11700;DHT22;5906;51.660;6.674;2022-08-21T08:35:08;22.90;99.90
11700;DHT22;5906;51.660;6.674;2022-08-21T08:37:36;23.00;99.90
11700;DHT22;5906;51.660;6.674;2022-08-21T08:40:14;23.30;99.90
11700;DHT22;5906;51.660;6.674;2022-08-21T08:42:46;23.40;99.90
11700;DHT22;5906;51.660;6.674;2022-08-21T08:45:18;23.40;99.90
11700;DHT22;5906;51.660;6.674;2022-08-21T08:47:50;23.60;99.90
11700;DHT22;5906;51.660;6.674;2022-08-21T08:50:26;23.70;99.90
11700;DHT22;5906;51.660;6.674;2022-08-21T08:53:05;23.80;99.90
11700;DHT22;5906;51.660;6.674;2022-08-21T08:55:36;23.80;99.90
11700;DHT22;5906;51.660;6.674;2022-08-21T08:58:03;24.10;99.90
11700;DHT22;5906;51.660;6.674;2022-08-21T09:00:31;23.90;99.90
11700;DHT22;5906;51.660;6.674;2022-08-21T09:02:59;23.80;99.90
11700;DHT22;5906;51.660;6.674;2022-08-21T09:05:48;23.90;99.90
11700;DHT22;5906;51.660;6.674;2022-08-21T09:14:06;24.10;99.90
11700;DHT22;5906;51.660;6.674;2022-08-21T09:16:54;24.30;99.30
11700;DHT22;5906;51.660;6.674;2022-08-21T09:20:03;24.50;99.90
11700;DHT22;5906;51.660;6.674;2022-08-21T09:22:43;24.80;99.30
11700;DHT22;5906;51.660;6.674;2022-08-21T09:25:24;25.10;98.60
11700;DHT22;5906;51.660;6.674;2022-08-21T09:27:51;25.30;97.50
11700;DHT22;5906;51.660;6.674;2022-08-21T09:30:24;25.40;95.70
11700;DHT22;5906;51.660;6.674;2022-08-21T09:32:51;25.40;94.70
11700;DHT22;5906;51.660;6.674;2022-08-21T09:35:21;25.40;94.10
11700;DHT22;5906;51.660;6.674;2022-08-21T09:37:56;25.60;94.30
11700;DHT22;5906;51.660;6.674;2022-08-21T09:45:40;25.80;97.20
11700;DHT22;5906;51.660;6.674;2022-08-21T09:48:10;26.00;94.00
11700;DHT22;5906;51.660;6.674;2022-08-21T09:50:37;26.20;93.50
11700;DHT22;5906;51.660;6.674;2022-08-21T09:53:13;26.40;91.90
11700;DHT22;5906;51.660;6.674;2022-08-21T09:55:57;26.50;93.40
11700;DHT22;5906;51.660;6.674;2022-08-21T09:58:49;26.40;91.70
11700;DHT22;5906;51.660;6.674;2022-08-21T10:01:24;26.40;90.80
11700;DHT22;5906;51.660;6.674;2022-08-21T10:04:27;26.60;90.50
11700;DHT22;5906;51.660;6.674;2022-08-21T10:06:54;26.40;90.40
11700;DHT22;5906;51.660;6.674;2022-08-21T10:09:23;26.50;89.80
11700;DHT22;5906;51.660;6.674;2022-08-21T10:20:29;27.10;84.30
11700;DHT22;5906;51.660;6.674;2022-08-21T10:31:17;27.20;84.90
11700;DHT22;5906;51.660;6.674;2022-08-21T10:34:10;27.20;86.50
11700;DHT22;5906;51.660;6.674;2022-08-21T10:39:33;27.30;82.00
11700;DHT22;5906;51.660;6.674;2022-08-21T10:42:27;27.10;81.90
11700;DHT22;5906;51.660;6.674;2022-08-21T10:47:28;27.00;81.30
11700;DHT22;5906;51.660;6.674;2022-08-21T10:50:19;27.00;85.30
11700;DHT22;5906;51.660;6.674;2022-08-21T10:53:19;26.90;81.50
11700;DHT22;5906;51.660;6.674;2022-08-21T11:01:33;27.70;79.50
11700;DHT22;5906;51.660;6.674;2022-08-21T11:04:19;27.70;90.30
11700;DHT22;5906;51.660;6.674;2022-08-21T11:06:53;27.80;79.70
11700;DHT22;5906;51.660;6.674;2022-08-21T11:09:24;27.90;81.60
11700;DHT22;5906;51.660;6.674;2022-08-21T11:12:09;27.60;84.10
11700;DHT22;5906;51.660;6.674;2022-08-21T11:14:54;27.40;80.40
11700;DHT22;5906;51.660;6.674;2022-08-21T11:17:45;27.20;78.40
11700;DHT22;5906;51.660;6.674;2022-08-21T11:20:20;27.20;79.90
11700;DHT22;5906;51.660;6.674;2022-08-21T11:22:58;27.10;78.20
11700;DHT22;5906;51.660;6.674;2022-08-21T11:25:36;27.20;82.40
11700;DHT22;5906;51.660;6.674;2022-08-21T11:28:19;27.10;83.30
11700;DHT22;5906;51.660;6.674;2022-08-21T11:36:24;27.90;78.90
11700;DHT22;5906;51.660;6.674;2022-08-21T11:44:50;28.10;67.90
11700;DHT22;5906;51.660;6.674;2022-08-21T11:47:41;28.20;67.70
11700;DHT22;5906;51.660;6.674;2022-08-21T11:50:22;28.10;67.20
11700;DHT22;5906;51.660;6.674;2022-08-21T11:53:05;28.30;66.40
11700;DHT22;5906;51.660;6.674;2022-08-21T11:55:43;28.10;65.70
11700;DHT22;5906;51.660;6.674;2022-08-21T11:58:25;28.30;64.70
11700;DHT22;5906;51.660;6.674;2022-08-21T12:01:00;28.50;64.30
11700;DHT22;5906;51.660;6.674;2022-08-21T12:03:36;28.80;64.40
11700;DHT22;5906;51.660;6.674;2022-08-21T12:06:09;29.00;58.90
11700;DHT22;5906;51.660;6.674;2022-08-21T12:11:21;29.30;53.10
11700;DHT22;5906;51.660;6.674;2022-08-21T12:16:43;29.60;52.10
11700;DHT22;5906;51.660;6.674;2022-08-21T12:21:58;29.30;59.90
11700;DHT22;5906;51.660;6.674;2022-08-21T12:27:29;29.50;49.20
11700;DHT22;5906;51.660;6.674;2022-08-21T12:30:22;29.20;49.90
11700;DHT22;5906;51.660;6.674;2022-08-21T12:33:00;29.20;50.90
11700;DHT22;5906;51.660;6.674;2022-08-21T12:35:38;29.10;48.10
11700;DHT22;5906;51.660;6.674;2022-08-21T12:38:14;29.00;49.60
11700;DHT22;5906;51.660;6.674;2022-08-21T12:40:55;29.00;50.60
11700;DHT22;5906;51.660;6.674;2022-08-21T12:43:29;29.10;47.60
11700;DHT22;5906;51.660;6.674;2022-08-21T12:45:57;29.30;44.30
11700;DHT22;5906;51.660;6.674;2022-08-21T12:48:35;29.20;47.20
11700;DHT22;5906;51.660;6.674;2022-08-21T12:51:14;29.30;47.30
11700;DHT22;5906;51.660;6.674;2022-08-21T12:53:54;29.60;49.30
11700;DHT22;5906;51.660;6.674;2022-08-21T12:56:30;29.80;48.80
11700;DHT22;5906;51.660;6.674;2022-08-21T12:59:03;29.90;50.00
11700;DHT22;5906;51.660;6.674;2022-08-21T13:01:38;29.90;45.50
11700;DHT22;5906;51.660;6.674;2022-08-21T13:04:10;29.70;45.70
11700;DHT22;5906;51.660;6.674;2022-08-21T13:06:42;29.70;44.90
11700;DHT22;5906;51.660;6.674;2022-08-21T13:09:15;29.40;45.60
11700;DHT22;5906;51.660;6.674;2022-08-21T13:11:44;29.20;45.70
11700;DHT22;5906;51.660;6.674;2022-08-21T13:14:33;28.90;42.60
11700;DHT22;5906;51.660;6.674;2022-08-21T13:17:11;28.80;45.90
11700;DHT22;5906;51.660;6.674;2022-08-21T13:19:57;28.70;43.20
11700;DHT22;5906;51.660;6.674;2022-08-21T13:22:26;28.70;45.30
11700;DHT22;5906;51.660;6.674;2022-08-21T13:25:02;28.70;47.70
11700;DHT22;5906;51.660;6.674;2022-08-21T13:27:33;28.90;47.00
11700;DHT22;5906;51.660;6.674;2022-08-21T13:30:08;29.20;48.20
11700;DHT22;5906;51.660;6.674;2022-08-21T13:32:41;29.30;47.20
11700;DHT22;5906;51.660;6.674;2022-08-21T13:35:12;29.30;48.40
11700;DHT22;5906;51.660;6.674;2022-08-21T13:37:42;29.60;47.20
11700;DHT22;5906;51.660;6.674;2022-08-21T13:40:12;29.40;46.20
11700;DHT22;5906;51.660;6.674;2022-08-21T13:42:42;29.20;44.80
11700;DHT22;5906;51.660;6.674;2022-08-21T13:45:24;29.20;47.10
11700;DHT22;5906;51.660;6.674;2022-08-21T13:47:52;29.00;48.20
11700;DHT22;5906;51.660;6.674;2022-08-21T13:50:22;28.80;47.30
11700;DHT22;5906;51.660;6.674;2022-08-21T13:53:00;28.20;50.50
11700;DHT22;5906;51.660;6.674;2022-08-21T13:55:44;27.80;49.00
11700;DHT22;5906;51.660;6.674;2022-08-21T13:58:11;27.60;50.20
11700;DHT22;5906;51.660;6.674;2022-08-21T14:00:48;27.70;51.60
11700;DHT22;5906;51.660;6.674;2022-08-21T14:05:52;28.10;52.80
11700;DHT22;5906;51.660;6.674;2022-08-21T14:08:35;28.40;52.40
11700;DHT22;5906;51.660;6.674;2022-08-21T14:11:05;28.40;53.50
11700;DHT22;5906;51.660;6.674;2022-08-21T14:14:00;28.50;52.00
11700;DHT22;5906;51.660;6.674;2022-08-21T14:16:41;28.50;54.00
11700;DHT22;5906;51.660;6.674;2022-08-21T14:19:28;28.50;53.30
11700;DHT22;5906;51.660;6.674;2022-08-21T14:22:01;28.80;51.70
11700;DHT22;5906;51.660;6.674;2022-08-21T14:24:29;28.80;52.80
11700;DHT22;5906;51.660;6.674;2022-08-21T14:27:04;28.70;53.00
11700;DHT22;5906;51.660;6.674;2022-08-21T14:29:40;28.80;52.50
11700;DHT22;5906;51.660;6.674;2022-08-21T14:32:17;29.00;52.00
11700;DHT22;5906;51.660;6.674;2022-08-21T14:34:52;29.20;53.30
11700;DHT22;5906;51.660;6.674;2022-08-21T14:37:22;29.20;50.30
11700;DHT22;5906;51.660;6.674;2022-08-21T14:39:49;29.30;53.10
11700;DHT22;5906;51.660;6.674;2022-08-21T14:42:16;29.00;52.30
11700;DHT22;5906;51.660;6.674;2022-08-21T14:44:43;29.00;48.30
11700;DHT22;5906;51.660;6.674;2022-08-21T14:47:10;29.10;49.20
11700;DHT22;5906;51.660;6.674;2022-08-21T14:49:37;28.70;51.10
11700;DHT22;5906;51.660;6.674;2022-08-21T14:52:04;28.70;50.20
11700;DHT22;5906;51.660;6.674;2022-08-21T14:54:31;28.50;49.30
11700;DHT22;5906;51.660;6.674;2022-08-21T14:57:02;28.60;49.50
11700;DHT22;5906;51.660;6.674;2022-08-21T14:59:30;28.40;49.20
11700;DHT22;5906;51.660;6.674;2022-08-21T15:01:59;28.40;49.90
11700;DHT22;5906;51.660;6.674;2022-08-21T15:04:26;28.30;50.90
11700;DHT22;5906;51.660;6.674;2022-08-21T15:06:52;28.50;50.00
11700;DHT22;5906;51.660;6.674;2022-08-21T15:09:19;28.60;52.40
11700;DHT22;5906;51.660;6.674;2022-08-21T15:11:46;28.90;50.00
11700;DHT22;5906;51.660;6.674;2022-08-21T15:14:21;29.00;47.20
11700;DHT22;5906;51.660;6.674;2022-08-21T15:16:50;28.80;46.60
11700;DHT22;5906;51.660;6.674;2022-08-21T15:19:17;28.60;45.60
11700;DHT22;5906;51.660;6.674;2022-08-21T15:21:44;28.50;47.10
11700;DHT22;5906;51.660;6.674;2022-08-21T15:24:11;28.40;46.50
11700;DHT22;5906;51.660;6.674;2022-08-21T15:26:38;28.50;51.40
11700;DHT22;5906;51.660;6.674;2022-08-21T15:29:06;28.60;49.90
11700;DHT22;5906;51.660;6.674;2022-08-21T15:31:34;28.80;49.20
11700;DHT22;5906;51.660;6.674;2022-08-21T15:34:02;28.80;47.80
11700;DHT22;5906;51.660;6.674;2022-08-21T15:36:28;28.70;49.80
11700;DHT22;5906;51.660;6.674;2022-08-21T15:38:55;28.60;48.50
11700;DHT22;5906;51.660;6.674;2022-08-21T15:41:22;28.70;47.70
11700;DHT22;5906;51.660;6.674;2022-08-21T15:43:51;28.60;45.80
11700;DHT22;5906;51.660;6.674;2022-08-21T15:46:19;28.50;44.10
11700;DHT22;5906;51.660;6.674;2022-08-21T15:48:47;28.50;45.10
11700;DHT22;5906;51.660;6.674;2022-08-21T15:51:15;28.50;43.00
11700;DHT22;5906;51.660;6.674;2022-08-21T15:53:42;28.30;45.40
11700;DHT22;5906;51.660;6.674;2022-08-21T15:56:23;28.30;42.90
11700;DHT22;5906;51.660;6.674;2022-08-21T15:58:53;28.30;44.80
11700;DHT22;5906;51.660;6.674;2022-08-21T16:01:21;28.40;44.50
11700;DHT22;5906;51.660;6.674;2022-08-21T16:03:49;28.20;41.50
11700;DHT22;5906;51.660;6.674;2022-08-21T16:06:18;28.10;42.60
11700;DHT22;5906;51.660;6.674;2022-08-21T16:09:05;28.30;43.10
11700;DHT22;5906;51.660;6.674;2022-08-21T16:11:32;28.30;41.00
11700;DHT22;5906;51.660;6.674;2022-08-21T16:13:59;28.30;42.10
11700;DHT22;5906;51.660;6.674;2022-08-21T16:16:25;28.10;41.30
11700;DHT22;5906;51.660;6.674;2022-08-21T16:18:53;28.10;42.00
11700;DHT22;5906;51.660;6.674;2022-08-21T16:21:20;28.10;41.90
11700;DHT22;5906;51.660;6.674;2022-08-21T16:23:47;28.20;43.60
11700;DHT22;5906;51.660;6.674;2022-08-21T16:26:13;28.30;44.80
11700;DHT22;5906;51.660;6.674;2022-08-21T16:28:45;28.30;45.10
11700;DHT22;5906;51.660;6.674;2022-08-21T16:31:14;28.20;41.80
11700;DHT22;5906;51.660;6.674;2022-08-21T16:33:43;28.20;41.80
11700;DHT22;5906;51.660;6.674;2022-08-21T16:36:12;28.20;40.90
11700;DHT22;5906;51.660;6.674;2022-08-21T16:38:39;28.00;42.20
11700;DHT22;5906;51.660;6.674;2022-08-21T16:41:11;27.90;40.00
11700;DHT22;5906;51.660;6.674;2022-08-21T16:43:40;27.80;40.60
11700;DHT22;5906;51.660;6.674;2022-08-21T16:46:10;27.60;43.20
11700;DHT22;5906;51.660;6.674;2022-08-21T16:48:39;27.50;41.90
11700;DHT22;5906;51.660;6.674;2022-08-21T16:51:06;27.30;41.80
11700;DHT22;5906;51.660;6.674;2022-08-21T16:53:33;26.90;42.90
11700;DHT22;5906;51.660;6.674;2022-08-21T16:56:00;26.80;44.40
11700;DHT22;5906;51.660;6.674;2022-08-21T16:58:33;26.70;41.70
11700;DHT22;5906;51.660;6.674;2022-08-21T17:01:04;26.40;45.00
11700;DHT22;5906;51.660;6.674;2022-08-21T17:03:35;26.30;40.30
11700;DHT22;5906;51.660;6.674;2022-08-21T17:06:03;26.10;43.30
11700;DHT22;5906;51.660;6.674;2022-08-21T17:08:30;26.00;44.60
11700;DHT22;5906;51.660;6.674;2022-08-21T17:10:57;26.00;44.90
11700;DHT22;5906;51.660;6.674;2022-08-21T17:13:25;26.10;45.90
11700;DHT22;5906;51.660;6.674;2022-08-21T17:15:53;25.90;44.10
11700;DHT22;5906;51.660;6.674;2022-08-21T17:18:22;25.80;45.70
11700;DHT22;5906;51.660;6.674;2022-08-21T17:20:49;25.60;44.80